»·PEaware :: N2367T KAJO-KVCV

N2367T :: KAJO-KVCV

FLIGHT INFORMATION

Flight Status: Arrived
Operator: Privately registered:
United States
More flights under this callsign
Pilot: Scott L. (28450)
Aircraft: CESSNA 172 SKYHAWK
(C172)
More flights by this aircraft type
Origin: KAJO Corona Mun
United States
Destination: KVCV Socal Logistics
United States
More flights between these airports :: More routes between these airports
Route: PDZ V442 APLES
File this flight plan on PilotEdge
Remarks:
Altitude:
(Current/Filed)
9,000ft
Speed:
(Current/Filed)
105kts
Departed: 24-Oct-20 10:05 AM
Arrived: 24-Oct-20 11:13 AM
Distance/Time
Traveled:
43nm/1:08
Distance/Time
To Go:
Arrived

Flight Plot

Page will automatically refresh every two minutes.


Map Options




Map Legend


Flown Route
Filed Route
Departure Airport
Arrival Airport
Navaid (VOR, NDB)
Fix

Horizontal Profiles

Position Reports

Time Latitude Longitude Heading Altitude Ground
Speed
24-Oct-20 09:50 33.896824 -117.597270 269 537ft 0kts
24-Oct-20 09:51 33.896824 -117.597270 269 537ft 0kts
24-Oct-20 09:52 33.896824 -117.597270 269 537ft 0kts
24-Oct-20 09:53 33.896824 -117.597270 269 537ft 0kts
24-Oct-20 09:54 33.896824 -117.597270 269 537ft 0kts
24-Oct-20 09:55 33.896824 -117.597270 269 537ft 0kts
24-Oct-20 09:56 33.896824 -117.597270 269 537ft 0kts
24-Oct-20 09:57 33.896824 -117.597270 269 537ft 0kts
24-Oct-20 09:58 33.896824 -117.597270 269 537ft 0kts
24-Oct-20 09:59 33.896824 -117.597270 269 537ft 0kts
24-Oct-20 10:00 33.896824 -117.597270 269 537ft 0kts
24-Oct-20 10:01 33.896824 -117.597270 269 537ft 0kts
24-Oct-20 10:01 33.896993 -117.597420 351 537ft 0kts
24-Oct-20 10:03 33.897249 -117.597455 352 537ft 0kts
24-Oct-20 10:04 33.897249 -117.597455 352 537ft 0kts
24-Oct-20 10:05 33.897931 -117.612802 277 987ft 73kts
24-Oct-20 10:06 33.905759 -117.609879 98 1937ft 74kts
24-Oct-20 10:06 33.904340 -117.589616 82 2695ft 73kts
24-Oct-20 10:08 33.910273 -117.559205 70 3678ft 74kts
24-Oct-20 10:08 33.916651 -117.536363 69 4007ft 110kts
24-Oct-20 10:09 33.936013 -117.507767 37 4124ft 110kts
24-Oct-20 10:10 33.944665 -117.487485 165 4838ft 81kts
24-Oct-20 10:11 33.928579 -117.501047 223 5406ft 75kts
24-Oct-20 10:12 33.925299 -117.516370 9 5980ft 88kts
24-Oct-20 10:13 33.943254 -117.496749 40 6745ft 75kts
24-Oct-20 10:14 33.939381 -117.480088 197 7289ft 80kts
24-Oct-20 10:15 33.921774 -117.494849 222 7882ft 76kts
24-Oct-20 10:16 33.924424 -117.510396 329 8429ft 75kts
24-Oct-20 10:17 33.945029 -117.512964 15 8938ft 85kts
24-Oct-20 10:18 33.971872 -117.497977 22 9000ft 123kts
24-Oct-20 10:19 34.002885 -117.479336 22 8996ft 124kts
24-Oct-20 10:20 34.034051 -117.460619 22 8996ft 125kts
24-Oct-20 10:21 34.065287 -117.441904 22 8996ft 125kts
24-Oct-20 10:22 34.096512 -117.423116 22 8997ft 125kts
24-Oct-20 10:23 34.127658 -117.404318 22 8997ft 124kts
24-Oct-20 10:24 34.158714 -117.385609 22 8998ft 124kts
24-Oct-20 10:25 34.189615 -117.366979 22 8999ft 123kts
24-Oct-20 10:26 34.220423 -117.348391 22 8999ft 123kts
24-Oct-20 10:27 34.251092 -117.329871 22 9005ft 122kts
24-Oct-20 10:28 34.281593 -117.311454 22 9032ft 122kts
24-Oct-20 10:29 34.312173 -117.292961 22 9030ft 123kts
24-Oct-20 10:30 34.342840 -117.274393 22 9028ft 123kts
24-Oct-20 10:31 34.373419 -117.255865 22 9027ft 123kts
24-Oct-20 10:32 34.404039 -117.237296 22 9026ft 123kts
24-Oct-20 10:33 34.434655 -117.218714 22 9026ft 123kts
24-Oct-20 10:34 34.465251 -117.200129 22 9025ft 123kts
24-Oct-20 10:35 34.495831 -117.181539 22 9023ft 122kts
24-Oct-20 10:36 34.526437 -117.162917 22 9021ft 122kts
24-Oct-20 10:37 34.557588 -117.146886 10 9019ft 120kts
24-Oct-20 10:38 34.589953 -117.141730 354 9067ft 116kts
24-Oct-20 10:39 34.622347 -117.146683 344 9044ft 117kts
24-Oct-20 10:40 34.653498 -117.156644 343 9024ft 116kts
24-Oct-20 10:41 34.683926 -117.166320 328 9009ft 109kts
24-Oct-20 10:42 34.708259 -117.186787 325 9021ft 108kts
24-Oct-20 10:43 34.733079 -117.207809 318 8826ft 110kts
24-Oct-20 10:44 34.753670 -117.234665 306 8071ft 110kts
24-Oct-20 10:45 34.769358 -117.266043 301 7309ft 107kts
24-Oct-20 10:46 34.781351 -117.297633 284 6755ft 100kts
24-Oct-20 10:47 34.788947 -117.331373 289 6221ft 104kts
24-Oct-20 10:48 34.784842 -117.362987 227 5860ft 100kts
24-Oct-20 10:49 34.756726 -117.373853 192 5599ft 113kts
24-Oct-20 10:50 34.727351 -117.378595 186 5412ft 96kts
24-Oct-20 10:51 34.700020 -117.381905 185 5074ft 87kts
24-Oct-20 10:52 34.677699 -117.383850 183 4403ft 78kts
24-Oct-20 10:53 34.656113 -117.385407 183 3737ft 78kts
24-Oct-20 10:54 34.635233 -117.386444 181 3212ft 67kts
24-Oct-20 10:55 34.614286 -117.388198 211 3723ft 78kts
24-Oct-20 10:56 34.617706 -117.409566 311 4385ft 69kts
24-Oct-20 10:57 34.629284 -117.427633 281 5019ft 68kts
24-Oct-20 10:58 34.620460 -117.448305 235 5638ft 74kts
24-Oct-20 10:59 34.608206 -117.471464 284 6068ft 103kts
24-Oct-20 11:00 34.615520 -117.509094 283 6017ft 114kts
24-Oct-20 11:01 34.622579 -117.546590 284 6017ft 113kts
24-Oct-20 11:02 34.647200 -117.555590 30 6017ft 115kts
24-Oct-20 11:03 34.655227 -117.522751 122 5598ft 119kts
24-Oct-20 11:04 34.637639 -117.488563 120 4887ft 118kts
24-Oct-20 11:05 34.620544 -117.454840 120 4226ft 116kts
24-Oct-20 11:06 34.604657 -117.423181 121 3870ft 100kts
24-Oct-20 11:07 34.599121 -117.394962 55 3898ft 86kts
24-Oct-20 11:08 34.614316 -117.375737 40 3852ft 76kts
24-Oct-20 11:09 34.632731 -117.373355 292 3944ft 83kts
24-Oct-20 11:10 34.619557 -117.374957 114 3621ft 70kts
24-Oct-20 11:11 34.605698 -117.361947 199 3054ft 69kts
24-Oct-20 11:12 34.595690 -117.372303 223 2855ft 23kts
24-Oct-20 11:13 34.593899 -117.372731 180 2859ft 6kts
24-Oct-20 11:14 34.591221 -117.371341 160 2862ft 0kts
24-Oct-20 11:15 34.591221 -117.371341 160 2862ft 0kts

Navigation Log

Ident Type
Flight plan parsing failed, navigation log unavailable